HomeShort term forecast

Short term forecast

Graphical weather forecast for the next 48 hours for Montreal:
Short term forecast
This weather forecast is automatically refreshed every 3 hours.

Hourly Experimental Forecast for the next 48 hours

Overall summary: Light rain later this afternoon.

 Date & Hour   Temp   Feel   Baro   Hum   Speed & Bearing   Wind Gust   Precip.%   Precip.   Visibility   Cloud cover   Conditions 
 22/07/2018 - 13:00  20.2°C  20.2°C  1017.3 hPa  74%  16.4 km/h   34.6 km/h  75%  0.88 mm/h  16.1km  99%  Light Rain 
 22/07/2018 - 14:00  20.2°C  20.2°C  1016.9 hPa  75%  19.8 km/h   38.1 km/h  51%  1.04 mm/h  16.1km  100%  Light Rain 
 22/07/2018 - 15:00  20.8°C  20.9°C  1016.9 hPa  77%  18.4 km/h   35.5 km/h  38%  0.67 mm/h  16.1km  94%  Light Rain 
 22/07/2018 - 16:00  22.0°C  22.3°C  1016.6 hPa  76%  18.1 km/h   35.6 km/h  14%  0.13 mm/h  16.1km  85%  Mostly Cloudy 
 22/07/2018 - 17:00  23.2°C  23.6°C  1016.5 hPa  76%  16.7 km/h   31.2 km/h  5%  0.05 mm/h  16.1km  88%  Mostly Cloudy 
 22/07/2018 - 18:00  24.1°C  24.5°C  1016.4 hPa  75%  16.1 km/h   28.9 km/h  2%  0.01 mm/h  16.1km  79%  Mostly Cloudy 
 22/07/2018 - 19:00  24.3°C  24.7°C  1016.3 hPa  75%  14.4 km/h   24.7 km/h  4%  0.05 mm/h  16.1km  64%  Mostly Cloudy 
 22/07/2018 - 20:00  23.7°C  24.2°C  1016.6 hPa  79%  11.4 km/h   21.5 km/h  4%  0.03 mm/h  16.1km  61%  Mostly Cloudy 
 22/07/2018 - 21:00  23.1°C  23.6°C  1017.0 hPa  83%  9.9 km/h   20.3 km/h  4%  0.06 mm/h  16.1km  64%  Mostly Cloudy 
 22/07/2018 - 22:00  22.4°C  23.0°C  1017.5 hPa  85%  9.3 km/h   21.5 km/h  4%  0.04 mm/h  16.1km  65%  Mostly Cloudy 
 22/07/2018 - 23:00  22.0°C  22.5°C  1017.8 hPa  87%  9.2 km/h   20.3 km/h  4%  0.01 mm/h  16.1km  60%  Mostly Cloudy 
 23/07/2018 - 00:00  21.6°C  22.1°C  1017.9 hPa  88%  8.8 km/h   21.1 km/h  3%  0.01 mm/h  16.1km  50%  Partly Cloudy 
 23/07/2018 - 01:00  21.2°C  21.7°C  1017.9 hPa  89%  8.3 km/h   19.5 km/h  3%  0.03 mm/h  16.1km  37%  Partly Cloudy 
 23/07/2018 - 02:00  20.8°C  21.2°C  1017.9 hPa  90%  8.8 km/h   19.5 km/h  4%  0.06 mm/h  16.1km  61%  Mostly Cloudy 
 23/07/2018 - 03:00  20.4°C  20.9°C  1017.9 hPa  92%  8.4 km/h   18.0 km/h  4%  0.06 mm/h  16.1km  69%  Mostly Cloudy 
 23/07/2018 - 04:00  20.2°C  20.7°C  1017.9 hPa  93%  8.2 km/h   16.8 km/h  5%  0.15 mm/h  16.1km  77%  Mostly Cloudy 
 23/07/2018 - 05:00  20.3°C  20.8°C  1017.9 hPa  93%  8.2 km/h   16.6 km/h  6%  0.25 mm/h  16.1km  96%  Overcast 
 23/07/2018 - 06:00  20.6°C  21.2°C  1018.2 hPa  94%  8.2 km/h   18.0 km/h  4%  0.16 mm/h  16.1km  96%  Overcast 
 23/07/2018 - 07:00  21.7°C  22.3°C  1018.5 hPa  91%  8.9 km/h   20.3 km/h  2%  0.04 mm/h  16.1km  86%  Mostly Cloudy 
 23/07/2018 - 08:00  23.0°C  23.7°C  1018.9 hPa  87%  10.2 km/h   22.3 km/h  2%  0.01 mm/h  16.1km  98%  Overcast 
 23/07/2018 - 09:00  24.4°C  25.1°C  1019.1 hPa  82%  11.9 km/h   23.8 km/h  0%  --  16.1km  99%  Overcast 
 23/07/2018 - 10:00  26.1°C  27.6°C  1019.3 hPa  76%  13.9 km/h   24.9 km/h  0%  --  16.1km  97%  Overcast 
 23/07/2018 - 11:00  27.9°C  30.4°C  1019.4 hPa  69%  15.8 km/h   25.5 km/h  0%  --  16.1km  85%  Mostly Cloudy 
 23/07/2018 - 12:00  29.1°C  32.0°C  1019.2 hPa  65%  17.0 km/h   24.9 km/h  2%  0.01 mm/h  16.1km  87%  Mostly Cloudy 
 23/07/2018 - 13:00  30.2°C  33.3°C  1018.9 hPa  60%  17.7 km/h   23.8 km/h  2%  0.05 mm/h  16.1km  79%  Mostly Cloudy 
 23/07/2018 - 14:00  30.7°C  33.8°C  1018.7 hPa  59%  18.6 km/h   23.7 km/h  3%  0.08 mm/h  16.1km  76%  Mostly Cloudy 
 23/07/2018 - 15:00  30.9°C  34.2°C  1018.4 hPa  58%  19.6 km/h   25.4 km/h  4%  0.07 mm/h  16.1km  77%  Mostly Cloudy 
 23/07/2018 - 16:00  30.8°C  34.3°C  1018.2 hPa  59%  21.1 km/h   28.2 km/h  6%  0.04 mm/h  16.1km  81%  Mostly Cloudy 
 23/07/2018 - 17:00  30.3°C  33.7°C  1018.1 hPa  61%  21.8 km/h   31.8 km/h  7%  0.02 mm/h  16.1km  86%  Mostly Cloudy 
 23/07/2018 - 18:00  29.3°C  32.4°C  1018.3 hPa  64%  21.7 km/h   37.6 km/h  8%  0.01 mm/h  16.1km  91%  Mostly Cloudy 
 23/07/2018 - 19:00  28.1°C  30.6°C  1018.6 hPa  68%  20.8 km/h   44.6 km/h  0%  --  16.1km  95%  Overcast 
 23/07/2018 - 20:00  26.7°C  28.6°C  1018.9 hPa  73%  19.7 km/h   48.9 km/h  0%  --  16.1km  96%  Overcast 
 23/07/2018 - 21:00  25.8°C  26.4°C  1019.3 hPa  77%  18.0 km/h   47.8 km/h  16%  0.02 mm/h  16.1km  87%  Mostly Cloudy 
 23/07/2018 - 22:00  25.2°C  25.8°C  1019.5 hPa  79%  16.6 km/h   43.8 km/h  17%  0.11 mm/h  16.1km  86%  Mostly Cloudy 
 23/07/2018 - 23:00  24.7°C  25.3°C  1019.7 hPa  81%  16.0 km/h   41.2 km/h  16%  0.23 mm/h  16.0km  82%  Mostly Cloudy 
 24/07/2018 - 00:00  24.4°C  25.1°C  1019.8 hPa  82%  16.5 km/h   42.1 km/h  13%  0.30 mm/h  14.9km  85%  Mostly Cloudy 
 24/07/2018 - 01:00  24.1°C  24.8°C  1019.6 hPa  83%  17.5 km/h   44.4 km/h  12%  0.42 mm/h  14.6km  86%  Mostly Cloudy 
 24/07/2018 - 02:00  23.9°C  24.5°C  1019.6 hPa  84%  18.0 km/h   46.1 km/h  13%  0.55 mm/h  14.6km  90%  Mostly Cloudy 
 24/07/2018 - 03:00  23.4°C  24.0°C  1019.6 hPa  87%  17.7 km/h   46.5 km/h  14%  0.58 mm/h  15.1km  93%  Mostly Cloudy 
 24/07/2018 - 04:00  22.7°C  23.4°C  1019.7 hPa  90%  17.1 km/h   46.3 km/h  22%  0.68 mm/h  16.0km  90%  Mostly Cloudy 
 24/07/2018 - 05:00  22.3°C  23.0°C  1019.8 hPa  93%  16.6 km/h   45.5 km/h  32%  0.74 mm/h  16.1km  90%  Light Rain 
 24/07/2018 - 06:00  22.3°C  23.1°C  1019.9 hPa  93%  16.9 km/h   44.1 km/h  25%  0.53 mm/h  16.1km  92%  Mostly Cloudy 
 24/07/2018 - 07:00  22.9°C  23.6°C  1020.2 hPa  90%  17.1 km/h   42.3 km/h  17%  0.33 mm/h  15.3km  94%  Overcast 
 24/07/2018 - 08:00  23.7°C  24.4°C  1020.3 hPa  86%  17.4 km/h   40.4 km/h  12%  0.30 mm/h  15.1km  95%  Overcast 
 24/07/2018 - 09:00  24.1°C  24.8°C  1020.3 hPa  84%  17.4 km/h   38.6 km/h  11%  0.25 mm/h  15.8km  95%  Overcast 
 24/07/2018 - 10:00  24.8°C  25.4°C  1020.3 hPa  82%  17.6 km/h   37.0 km/h  10%  0.15 mm/h  16.1km  94%  Overcast 
 24/07/2018 - 11:00  25.7°C  26.3°C  1020.1 hPa  78%  17.4 km/h   35.7 km/h  10%  0.10 mm/h  16.1km  94%  Overcast 
 24/07/2018 - 12:00  26.9°C  28.9°C  1019.7 hPa  73%  17.3 km/h   35.2 km/h  12%  0.09 mm/h  16.1km  95%  Overcast 
Test

 

Past weather and reports

Past weatherFind in this section the past weather conditions, weather archive, graphics, reports and statistics.

Current conditions

Current weather condition for MontrealAll you need to know about the current weather conditions for Montreal. Weather data is updated every 10 minutes.

Weather forecast

Current Montreal weatherSince 2004, celinium.com website has provided accurate weather forecast for Montreal's island.